sensor_id;sensor_type;location;lat;lon;timestamp;pressure;altitude;pressure_sealevel;temperature;humidity
5053;BME280;2545;50.892;5.740;2023-05-10T00:01:00;56284.66;;;-142.21;100.00
5053;BME280;2545;50.892;5.740;2023-05-10T00:03:26;56270.91;;;-142.21;100.00
5053;BME280;2545;50.892;5.740;2023-05-10T00:05:51;56286.63;;;-142.21;100.00
5053;BME280;2545;50.892;5.740;2023-05-10T00:08:16;56268.97;;;-142.21;100.00
5053;BME280;2545;50.892;5.740;2023-05-10T00:10:42;56280.72;;;-142.21;100.00
5053;BME280;2545;50.892;5.740;2023-05-10T00:13:07;56280.72;;;-142.21;100.00
5053;BME280;2545;50.892;5.740;2023-05-10T00:15:32;56280.72;;;-142.21;100.00
5053;BME280;2545;50.892;5.740;2023-05-10T00:17:57;56298.38;;;-142.21;100.00
5053;BME280;2545;50.892;5.740;2023-05-10T00:20:23;56310.13;;;-142.21;100.00
5053;BME280;2545;50.892;5.740;2023-05-10T00:22:48;56261.13;;;-142.21;100.00
5053;BME280;2545;50.892;5.740;2023-05-10T00:25:13;56300.34;;;-142.21;100.00
5053;BME280;2545;50.892;5.740;2023-05-10T00:27:39;56284.66;;;-142.21;100.00
5053;BME280;2545;50.892;5.740;2023-05-10T00:30:05;56265.03;;;-142.21;100.00
5053;BME280;2545;50.892;5.740;2023-05-10T00:32:31;56276.81;;;-142.21;100.00
5053;BME280;2545;50.892;5.740;2023-05-10T00:34:57;56282.69;;;-142.21;100.00
5053;BME280;2545;50.892;5.740;2023-05-10T00:37:22;56304.25;;;-142.21;100.00
5053;BME280;2545;50.892;5.740;2023-05-10T00:39:48;56310.13;;;-142.21;100.00
5053;BME280;2545;50.892;5.740;2023-05-10T00:42:13;56300.34;;;-142.21;100.00
5053;BME280;2545;50.892;5.740;2023-05-10T00:44:38;56304.25;;;-142.21;100.00
5053;BME280;2545;50.892;5.740;2023-05-10T00:47:04;56300.34;;;-142.21;100.00
5053;BME280;2545;50.892;5.740;2023-05-10T00:49:29;56253.28;;;-142.21;100.00
5053;BME280;2545;50.892;5.740;2023-05-10T00:51:55;56261.13;;;-142.21;100.00
5053;BME280;2545;50.892;5.740;2023-05-10T00:54:20;56294.47;;;-142.21;100.00
5053;BME280;2545;50.892;5.740;2023-05-10T00:56:46;56316.03;;;-142.21;100.00
5053;BME280;2545;50.892;5.740;2023-05-10T00:59:17;56329.75;;;-142.21;100.00
5053;BME280;2545;50.892;5.740;2023-05-10T01:01:44;56306.22;;;-142.21;100.00
5053;BME280;2545;50.892;5.740;2023-05-10T01:04:10;56300.34;;;-142.21;100.00
5053;BME280;2545;50.892;5.740;2023-05-10T01:06:37;56276.81;;;-142.21;100.00
5053;BME280;2545;50.892;5.740;2023-05-10T01:09:02;56268.97;;;-142.21;100.00
5053;BME280;2545;50.892;5.740;2023-05-10T01:11:28;56288.56;;;-142.21;100.00
5053;BME280;2545;50.892;5.740;2023-05-10T01:13:56;56282.69;;;-142.21;100.00
5053;BME280;2545;50.892;5.740;2023-05-10T01:16:23;56249.34;;;-142.21;100.00
5053;BME280;2545;50.892;5.740;2023-05-10T01:18:49;56286.63;;;-142.21;100.00
5053;BME280;2545;50.892;5.740;2023-05-10T01:21:34;56288.56;;;-142.21;100.00
5053;BME280;2545;50.892;5.740;2023-05-10T01:24:13;56300.34;;;-142.21;100.00
5053;BME280;2545;50.892;5.740;2023-05-10T01:35:09;56274.84;;;-142.21;100.00
5053;BME280;2545;50.892;5.740;2023-05-10T01:40:47;56265.03;;;-142.21;100.00
5053;BME280;2545;50.892;5.740;2023-05-10T01:43:21;56265.03;;;-142.21;100.00
5053;BME280;2545;50.892;5.740;2023-05-10T01:46:00;56268.97;;;-142.21;100.00
5053;BME280;2545;50.892;5.740;2023-05-10T01:48:27;56308.19;;;-142.21;100.00
5053;BME280;2545;50.892;5.740;2023-05-10T01:50:54;56268.97;;;-142.21;100.00
5053;BME280;2545;50.892;5.740;2023-05-10T01:53:21;56249.34;;;-142.21;100.00
5053;BME280;2545;50.892;5.740;2023-05-10T01:55:51;56288.56;;;-142.21;100.00
5053;BME280;2545;50.892;5.740;2023-05-10T01:58:21;56319.94;;;-142.21;100.00
5053;BME280;2545;50.892;5.740;2023-05-10T02:00:49;56265.03;;;-142.21;100.00
5053;BME280;2545;50.892;5.740;2023-05-10T02:03:16;56278.78;;;-142.21;100.00
5053;BME280;2545;50.892;5.740;2023-05-10T02:05:43;56263.06;;;-142.21;100.00
5053;BME280;2545;50.892;5.740;2023-05-10T02:08:11;56306.22;;;-142.21;100.00
5053;BME280;2545;50.892;5.740;2023-05-10T02:10:39;56261.13;;;-142.21;100.00
5053;BME280;2545;50.892;5.740;2023-05-10T02:13:06;56296.41;;;-142.21;100.00
5053;BME280;2545;50.892;5.740;2023-05-10T02:15:33;56302.28;;;-142.21;100.00
5053;BME280;2545;50.892;5.740;2023-05-10T02:17:59;56278.78;;;-142.21;100.00
5053;BME280;2545;50.892;5.740;2023-05-10T02:20:26;56259.16;;;-142.21;100.00
5053;BME280;2545;50.892;5.740;2023-05-10T02:22:54;56290.53;;;-142.21;100.00
5053;BME280;2545;50.892;5.740;2023-05-10T02:25:21;56282.69;;;-142.21;100.00
5053;BME280;2545;50.892;5.740;2023-05-10T02:27:48;56282.69;;;-142.21;100.00
5053;BME280;2545;50.892;5.740;2023-05-10T02:30:14;56268.97;;;-142.21;100.00
5053;BME280;2545;50.892;5.740;2023-05-10T02:32:40;56268.97;;;-142.21;100.00
5053;BME280;2545;50.892;5.740;2023-05-10T02:35:08;56286.63;;;-142.21;100.00
5053;BME280;2545;50.892;5.740;2023-05-10T02:37:36;56272.88;;;-142.21;100.00
5053;BME280;2545;50.892;5.740;2023-05-10T02:40:03;56304.25;;;-142.21;100.00
5053;BME280;2545;50.892;5.740;2023-05-10T02:42:33;56257.19;;;-142.21;100.00
5053;BME280;2545;50.892;5.740;2023-05-10T02:45:01;56270.91;;;-142.21;100.00
5053;BME280;2545;50.892;5.740;2023-05-10T02:47:29;56257.19;;;-142.21;100.00
5053;BME280;2545;50.892;5.740;2023-05-10T02:49:55;56276.81;;;-142.21;100.00
5053;BME280;2545;50.892;5.740;2023-05-10T02:52:26;56284.66;;;-142.21;100.00
5053;BME280;2545;50.892;5.740;2023-05-10T02:54:55;56272.88;;;-142.21;100.00
5053;BME280;2545;50.892;5.740;2023-05-10T02:57:31;56310.13;;;-142.21;100.00
5053;BME280;2545;50.892;5.740;2023-05-10T02:59:57;56290.53;;;-142.21;100.00
5053;BME280;2545;50.892;5.740;2023-05-10T03:02:23;56268.97;;;-142.21;100.00
5053;BME280;2545;50.892;5.740;2023-05-10T03:04:48;56276.81;;;-142.21;100.00
5053;BME280;2545;50.892;5.740;2023-05-10T03:07:14;56247.38;;;-142.21;100.00
5053;BME280;2545;50.892;5.740;2023-05-10T03:09:40;56261.13;;;-142.21;100.00
5053;BME280;2545;50.892;5.740;2023-05-10T03:12:16;56296.41;;;-142.21;100.00
5053;BME280;2545;50.892;5.740;2023-05-10T03:15:11;56306.22;;;-142.21;100.00
5053;BME280;2545;50.892;5.740;2023-05-10T03:17:52;56255.22;;;-142.21;100.00
5053;BME280;2545;50.892;5.740;2023-05-10T03:20:30;56257.19;;;-142.21;100.00
5053;BME280;2545;50.892;5.740;2023-05-10T03:23:04;56288.56;;;-142.21;100.00
5053;BME280;2545;50.892;5.740;2023-05-10T03:25:31;56249.34;;;-142.21;100.00
5053;BME280;2545;50.892;5.740;2023-05-10T03:27:56;56304.25;;;-142.21;100.00
5053;BME280;2545;50.892;5.740;2023-05-10T03:30:24;56288.56;;;-142.21;100.00
5053;BME280;2545;50.892;5.740;2023-05-10T03:32:49;56268.97;;;-142.21;100.00
5053;BME280;2545;50.892;5.740;2023-05-10T03:35:14;56292.50;;;-142.21;100.00
5053;BME280;2545;50.892;5.740;2023-05-10T03:37:40;56270.91;;;-142.21;100.00
5053;BME280;2545;50.892;5.740;2023-05-10T03:40:06;56249.34;;;-142.21;100.00
5053;BME280;2545;50.892;5.740;2023-05-10T03:42:31;56257.19;;;-142.21;100.00
5053;BME280;2545;50.892;5.740;2023-05-10T03:44:57;56292.50;;;-142.21;100.00
5053;BME280;2545;50.892;5.740;2023-05-10T03:47:22;56296.41;;;-142.21;100.00
5053;BME280;2545;50.892;5.740;2023-05-10T03:49:47;56308.19;;;-142.21;100.00
5053;BME280;2545;50.892;5.740;2023-05-10T03:52:13;56333.69;;;-142.21;100.00
5053;BME280;2545;50.892;5.740;2023-05-10T03:54:39;56302.28;;;-142.21;100.00
5053;BME280;2545;50.892;5.740;2023-05-10T03:57:04;56321.91;;;-142.21;100.00
5053;BME280;2545;50.892;5.740;2023-05-10T03:59:30;56272.88;;;-142.21;100.00
5053;BME280;2545;50.892;5.740;2023-05-10T04:01:55;56280.72;;;-142.21;100.00
5053;BME280;2545;50.892;5.740;2023-05-10T04:04:21;56296.41;;;-142.21;100.00
5053;BME280;2545;50.892;5.740;2023-05-10T04:06:47;56268.97;;;-142.21;100.00
5053;BME280;2545;50.892;5.740;2023-05-10T04:09:12;56276.81;;;-142.21;100.00
5053;BME280;2545;50.892;5.740;2023-05-10T04:11:37;56280.72;;;-142.21;100.00
5053;BME280;2545;50.892;5.740;2023-05-10T04:14:03;56272.88;;;-142.21;100.00
5053;BME280;2545;50.892;5.740;2023-05-10T04:16:28;56292.50;;;-142.21;100.00
5053;BME280;2545;50.892;5.740;2023-05-10T04:18:53;56268.97;;;-142.21;100.00
5053;BME280;2545;50.892;5.740;2023-05-10T04:21:19;56288.56;;;-142.21;100.00
5053;BME280;2545;50.892;5.740;2023-05-10T04:23:44;56265.03;;;-142.21;100.00
5053;BME280;2545;50.892;5.740;2023-05-10T04:26:09;56268.97;;;-142.21;100.00
5053;BME280;2545;50.892;5.740;2023-05-10T04:28:35;56290.53;;;-142.21;100.00
5053;BME280;2545;50.892;5.740;2023-05-10T04:31:09;56310.13;;;-142.21;100.00
5053;BME280;2545;50.892;5.740;2023-05-10T04:33:36;56292.50;;;-142.21;100.00
5053;BME280;2545;50.892;5.740;2023-05-10T04:36:02;56302.28;;;-142.21;100.00
5053;BME280;2545;50.892;5.740;2023-05-10T04:38:28;56319.94;;;-142.21;100.00
5053;BME280;2545;50.892;5.740;2023-05-10T04:40:53;56304.25;;;-142.21;100.00
5053;BME280;2545;50.892;5.740;2023-05-10T04:43:19;56323.88;;;-142.21;100.00
5053;BME280;2545;50.892;5.740;2023-05-10T04:45:45;56335.63;;;-142.21;100.00
5053;BME280;2545;50.892;5.740;2023-05-10T04:48:10;56290.53;;;-142.21;100.00
5053;BME280;2545;50.892;5.740;2023-05-10T04:50:36;56274.84;;;-142.21;100.00
5053;BME280;2545;50.892;5.740;2023-05-10T04:53:01;56272.88;;;-142.21;100.00
5053;BME280;2545;50.892;5.740;2023-05-10T04:55:27;56282.69;;;-142.21;100.00
5053;BME280;2545;50.892;5.740;2023-05-10T04:57:52;56298.38;;;-142.21;100.00
5053;BME280;2545;50.892;5.740;2023-05-10T05:00:18;56296.41;;;-142.21;100.00
5053;BME280;2545;50.892;5.740;2023-05-10T05:02:44;56308.19;;;-142.21;100.00
5053;BME280;2545;50.892;5.740;2023-05-10T05:05:11;56308.19;;;-142.21;100.00
5053;BME280;2545;50.892;5.740;2023-05-10T05:07:36;56288.56;;;-142.21;100.00
5053;BME280;2545;50.892;5.740;2023-05-10T05:10:06;56268.97;;;-142.21;100.00
5053;BME280;2545;50.892;5.740;2023-05-10T05:12:32;56265.03;;;-142.21;100.00
5053;BME280;2545;50.892;5.740;2023-05-10T05:14:57;56292.50;;;-142.21;100.00
5053;BME280;2545;50.892;5.740;2023-05-10T05:17:22;56278.78;;;-142.21;100.00
5053;BME280;2545;50.892;5.740;2023-05-10T05:19:48;56306.22;;;-142.21;100.00
5053;BME280;2545;50.892;5.740;2023-05-10T05:22:13;56302.28;;;-142.21;100.00
5053;BME280;2545;50.892;5.740;2023-05-10T05:24:38;56325.84;;;-142.21;100.00
5053;BME280;2545;50.892;5.740;2023-05-10T05:27:04;56312.09;;;-142.21;100.00
5053;BME280;2545;50.892;5.740;2023-05-10T05:29:29;56294.47;;;-142.21;100.00
5053;BME280;2545;50.892;5.740;2023-05-10T05:31:54;56312.09;;;-142.21;100.00
5053;BME280;2545;50.892;5.740;2023-05-10T05:34:20;56282.69;;;-142.21;100.00
5053;BME280;2545;50.892;5.740;2023-05-10T05:36:47;56288.56;;;-142.21;100.00
5053;BME280;2545;50.892;5.740;2023-05-10T05:39:12;56288.56;;;-142.21;100.00
5053;BME280;2545;50.892;5.740;2023-05-10T05:41:37;56292.50;;;-142.21;100.00
5053;BME280;2545;50.892;5.740;2023-05-10T05:44:03;56298.38;;;-142.21;100.00
5053;BME280;2545;50.892;5.740;2023-05-10T05:46:28;56312.09;;;-142.21;100.00
5053;BME280;2545;50.892;5.740;2023-05-10T05:48:53;56300.34;;;-142.21;100.00
5053;BME280;2545;50.892;5.740;2023-05-10T05:51:19;56272.88;;;-142.21;100.00
5053;BME280;2545;50.892;5.740;2023-05-10T05:53:44;56349.38;;;-142.21;100.00
5053;BME280;2545;50.892;5.740;2023-05-10T05:56:10;56288.56;;;-142.21;100.00
5053;BME280;2545;50.892;5.740;2023-05-10T05:58:35;56304.25;;;-142.21;100.00
5053;BME280;2545;50.892;5.740;2023-05-10T06:01:00;56288.56;;;-142.21;100.00
5053;BME280;2545;50.892;5.740;2023-05-10T06:03:26;56294.47;;;-142.21;100.00
5053;BME280;2545;50.892;5.740;2023-05-10T06:05:51;56245.44;;;-142.21;100.00
5053;BME280;2545;50.892;5.740;2023-05-10T06:08:17;56319.94;;;-142.21;100.00
5053;BME280;2545;50.892;5.740;2023-05-10T06:10:42;56317.97;;;-142.21;100.00
5053;BME280;2545;50.892;5.740;2023-05-10T06:13:07;56306.22;;;-142.21;100.00
5053;BME280;2545;50.892;5.740;2023-05-10T06:15:33;56312.09;;;-142.21;100.00
5053;BME280;2545;50.892;5.740;2023-05-10T06:17:58;56288.56;;;-142.21;100.00
5053;BME280;2545;50.892;5.740;2023-05-10T06:20:23;56329.75;;;-142.21;100.00
5053;BME280;2545;50.892;5.740;2023-05-10T06:22:49;56314.06;;;-142.21;100.00
5053;BME280;2545;50.892;5.740;2023-05-10T06:25:14;56288.56;;;-142.21;100.00
5053;BME280;2545;50.892;5.740;2023-05-10T06:27:40;56280.72;;;-142.21;100.00
5053;BME280;2545;50.892;5.740;2023-05-10T06:30:05;56270.91;;;-142.21;100.00
5053;BME280;2545;50.892;5.740;2023-05-10T06:32:31;56304.25;;;-142.21;100.00
5053;BME280;2545;50.892;5.740;2023-05-10T06:34:56;56294.47;;;-142.21;100.00
5053;BME280;2545;50.892;5.740;2023-05-10T06:37:22;56329.75;;;-142.21;100.00
5053;BME280;2545;50.892;5.740;2023-05-10T06:39:47;56310.13;;;-142.21;100.00
5053;BME280;2545;50.892;5.740;2023-05-10T06:42:12;56304.25;;;-142.21;100.00
5053;BME280;2545;50.892;5.740;2023-05-10T06:44:38;56280.72;;;-142.21;100.00
5053;BME280;2545;50.892;5.740;2023-05-10T06:47:03;56304.25;;;-142.21;100.00
5053;BME280;2545;50.892;5.740;2023-05-10T06:49:28;56278.78;;;-142.21;100.00
5053;BME280;2545;50.892;5.740;2023-05-10T06:51:55;56243.47;;;-142.21;100.00
5053;BME280;2545;50.892;5.740;2023-05-10T06:54:20;56296.41;;;-142.21;100.00
5053;BME280;2545;50.892;5.740;2023-05-10T06:56:46;56288.56;;;-142.21;100.00
5053;BME280;2545;50.892;5.740;2023-05-10T06:59:11;56286.63;;;-142.21;100.00
5053;BME280;2545;50.892;5.740;2023-05-10T07:01:38;56294.47;;;-142.21;100.00
5053;BME280;2545;50.892;5.740;2023-05-10T07:04:04;56261.13;;;-142.21;100.00
5053;BME280;2545;50.892;5.740;2023-05-10T07:06:29;56312.09;;;-142.21;100.00
5053;BME280;2545;50.892;5.740;2023-05-10T07:08:54;56310.13;;;-142.21;100.00
5053;BME280;2545;50.892;5.740;2023-05-10T07:11:20;56280.72;;;-142.21;100.00
5053;BME280;2545;50.892;5.740;2023-05-10T07:13:45;56292.50;;;-142.21;100.00
5053;BME280;2545;50.892;5.740;2023-05-10T07:16:11;56292.50;;;-142.21;100.00
5053;BME280;2545;50.892;5.740;2023-05-10T07:18:37;56290.53;;;-142.21;100.00
5053;BME280;2545;50.892;5.740;2023-05-10T07:21:02;56268.97;;;-142.21;100.00
5053;BME280;2545;50.892;5.740;2023-05-10T07:23:28;56268.97;;;-142.21;100.00
5053;BME280;2545;50.892;5.740;2023-05-10T07:25:53;56316.03;;;-142.21;100.00
5053;BME280;2545;50.892;5.740;2023-05-10T07:28:19;56335.63;;;-142.21;100.00
5053;BME280;2545;50.892;5.740;2023-05-10T07:30:45;56290.53;;;-142.21;100.00
5053;BME280;2545;50.892;5.740;2023-05-10T07:33:12;56272.88;;;-142.21;100.00
5053;BME280;2545;50.892;5.740;2023-05-10T07:35:38;56290.53;;;-142.21;100.00
5053;BME280;2545;50.892;5.740;2023-05-10T07:38:03;56290.53;;;-142.21;100.00
5053;BME280;2545;50.892;5.740;2023-05-10T07:40:29;56280.72;;;-142.21;100.00
5053;BME280;2545;50.892;5.740;2023-05-10T07:42:54;56261.13;;;-142.21;100.00
5053;BME280;2545;50.892;5.740;2023-05-10T07:45:20;56288.56;;;-142.21;100.00
5053;BME280;2545;50.892;5.740;2023-05-10T07:47:45;56284.66;;;-142.21;100.00
5053;BME280;2545;50.892;5.740;2023-05-10T07:50:10;56298.38;;;-142.21;100.00
5053;BME280;2545;50.892;5.740;2023-05-10T07:52:36;56276.81;;;-142.21;100.00
5053;BME280;2545;50.892;5.740;2023-05-10T07:55:01;56284.66;;;-142.21;100.00
5053;BME280;2545;50.892;5.740;2023-05-10T07:57:26;56274.84;;;-142.21;100.00
5053;BME280;2545;50.892;5.740;2023-05-10T07:59:52;56288.56;;;-142.21;100.00
5053;BME280;2545;50.892;5.740;2023-05-10T08:02:17;56286.63;;;-142.21;100.00
5053;BME280;2545;50.892;5.740;2023-05-10T08:04:42;56280.72;;;-142.21;100.00
5053;BME280;2545;50.892;5.740;2023-05-10T08:07:08;56321.91;;;-142.21;100.00
5053;BME280;2545;50.892;5.740;2023-05-10T08:09:33;56306.22;;;-142.21;100.00
5053;BME280;2545;50.892;5.740;2023-05-10T08:11:58;56308.19;;;-142.21;100.00
5053;BME280;2545;50.892;5.740;2023-05-10T08:14:25;56310.13;;;-142.21;100.00
5053;BME280;2545;50.892;5.740;2023-05-10T08:16:50;56296.41;;;-142.21;100.00
5053;BME280;2545;50.892;5.740;2023-05-10T08:19:16;56257.19;;;-142.21;100.00
5053;BME280;2545;50.892;5.740;2023-05-10T08:21:44;56327.78;;;-142.21;100.00
5053;BME280;2545;50.892;5.740;2023-05-10T08:24:10;56270.91;;;-142.21;100.00
5053;BME280;2545;50.892;5.740;2023-05-10T08:26:35;56331.72;;;-142.21;100.00
5053;BME280;2545;50.892;5.740;2023-05-10T08:29:00;56272.88;;;-142.21;100.00
5053;BME280;2545;50.892;5.740;2023-05-10T08:31:25;56274.84;;;-142.21;100.00
5053;BME280;2545;50.892;5.740;2023-05-10T08:33:51;56321.91;;;-142.21;100.00
5053;BME280;2545;50.892;5.740;2023-05-10T08:36:17;56308.19;;;-142.21;100.00
5053;BME280;2545;50.892;5.740;2023-05-10T08:38:46;56300.34;;;-142.21;100.00
5053;BME280;2545;50.892;5.740;2023-05-10T08:41:13;56282.69;;;-142.21;100.00
5053;BME280;2545;50.892;5.740;2023-05-10T08:43:38;56308.19;;;-142.21;100.00
5053;BME280;2545;50.892;5.740;2023-05-10T08:46:04;56310.13;;;-142.21;100.00
5053;BME280;2545;50.892;5.740;2023-05-10T08:48:33;56325.84;;;-142.21;100.00
5053;BME280;2545;50.892;5.740;2023-05-10T08:51:00;56278.78;;;-142.21;100.00
5053;BME280;2545;50.892;5.740;2023-05-10T08:53:26;56319.94;;;-142.21;100.00
5053;BME280;2545;50.892;5.740;2023-05-10T08:55:52;56280.72;;;-142.21;100.00
5053;BME280;2545;50.892;5.740;2023-05-10T08:58:18;56294.47;;;-142.21;100.00
5053;BME280;2545;50.892;5.740;2023-05-10T09:00:44;56308.19;;;-142.21;100.00
5053;BME280;2545;50.892;5.740;2023-05-10T09:03:10;56265.03;;;-142.21;100.00
5053;BME280;2545;50.892;5.740;2023-05-10T09:05:36;56306.22;;;-142.21;100.00
5053;BME280;2545;50.892;5.740;2023-05-10T09:08:02;56290.53;;;-142.21;100.00
5053;BME280;2545;50.892;5.740;2023-05-10T09:10:29;56272.88;;;-142.21;100.00
5053;BME280;2545;50.892;5.740;2023-05-10T09:12:56;56241.50;;;-142.21;100.00
5053;BME280;2545;50.892;5.740;2023-05-10T09:15:22;56316.03;;;-142.21;100.00
5053;BME280;2545;50.892;5.740;2023-05-10T09:17:49;56339.56;;;-142.21;100.00
5053;BME280;2545;50.892;5.740;2023-05-10T09:20:14;56304.25;;;-142.21;100.00
5053;BME280;2545;50.892;5.740;2023-05-10T09:22:40;56331.72;;;-142.21;100.00
5053;BME280;2545;50.892;5.740;2023-05-10T09:25:12;56276.81;;;-142.21;100.00
5053;BME280;2545;50.892;5.740;2023-05-10T09:27:39;56288.56;;;-142.21;100.00
5053;BME280;2545;50.892;5.740;2023-05-10T09:30:06;56282.69;;;-142.21;100.00
5053;BME280;2545;50.892;5.740;2023-05-10T09:32:39;56284.66;;;-142.21;100.00
5053;BME280;2545;50.892;5.740;2023-05-10T09:35:11;56323.88;;;-142.21;100.00
5053;BME280;2545;50.892;5.740;2023-05-10T09:37:46;56268.97;;;-142.21;100.00
5053;BME280;2545;50.892;5.740;2023-05-10T09:40:26;56290.53;;;-142.21;100.00
5053;BME280;2545;50.892;5.740;2023-05-10T09:43:08;56274.84;;;-142.21;100.00
5053;BME280;2545;50.892;5.740;2023-05-10T09:45:35;56312.09;;;-142.21;100.00
5053;BME280;2545;50.892;5.740;2023-05-10T09:48:02;56292.50;;;-142.21;100.00
5053;BME280;2545;50.892;5.740;2023-05-10T09:50:31;56265.03;;;-142.21;100.00
5053;BME280;2545;50.892;5.740;2023-05-10T09:52:59;56290.53;;;-142.21;100.00
5053;BME280;2545;50.892;5.740;2023-05-10T09:55:44;56280.72;;;-142.21;100.00
5053;BME280;2545;50.892;5.740;2023-05-10T09:58:10;56255.22;;;-142.21;99.75
5053;BME280;2545;50.892;5.740;2023-05-10T10:00:37;56276.81;;;-142.21;99.00
5053;BME280;2545;50.892;5.740;2023-05-10T10:03:03;56286.63;;;-142.21;99.45
5053;BME280;2545;50.892;5.740;2023-05-10T10:07:56;56296.41;;;-142.21;93.69
5053;BME280;2545;50.892;5.740;2023-05-10T10:10:23;56265.03;;;-142.21;98.57
5053;BME280;2545;50.892;5.740;2023-05-10T10:12:49;56276.81;;;-142.21;96.95
5053;BME280;2545;50.892;5.740;2023-05-10T10:15:15;56317.97;;;-142.21;94.75
5053;BME280;2545;50.892;5.740;2023-05-10T10:17:41;56268.97;;;-142.21;97.76
5053;BME280;2545;50.892;5.740;2023-05-10T10:20:08;56296.41;;;-142.21;98.76
5053;BME280;2545;50.892;5.740;2023-05-10T10:22:34;56274.84;;;-142.21;96.66
5053;BME280;2545;50.892;5.740;2023-05-10T10:25:00;56241.50;;;-142.21;97.71
5053;BME280;2545;50.892;5.740;2023-05-10T10:30:12;56284.66;;;-142.21;96.84
5053;BME280;2545;50.892;5.740;2023-05-10T10:35:31;56272.88;;;-142.21;99.41
5053;BME280;2545;50.892;5.740;2023-05-10T10:37:57;56268.97;;;-142.21;100.00
5053;BME280;2545;50.892;5.740;2023-05-10T10:40:33;56294.47;;;-142.21;100.00
5053;BME280;2545;50.892;5.740;2023-05-10T10:43:28;56284.66;;;-142.21;99.71
5053;BME280;2545;50.892;5.740;2023-05-10T10:46:13;56241.50;;;-142.21;96.61
5053;BME280;2545;50.892;5.740;2023-05-10T10:48:41;56270.91;;;-142.21;95.56
5053;BME280;2545;50.892;5.740;2023-05-10T10:51:07;56268.97;;;-142.21;96.70
5053;BME280;2545;50.892;5.740;2023-05-10T10:53:34;56253.28;;;-142.21;97.36
5053;BME280;2545;50.892;5.740;2023-05-10T10:56:08;56286.63;;;-142.21;96.93
5053;BME280;2545;50.892;5.740;2023-05-10T10:58:35;56265.03;;;-142.21;95.07
5053;BME280;2545;50.892;5.740;2023-05-10T11:01:17;56257.19;;;-142.21;100.00
5053;BME280;2545;50.892;5.740;2023-05-10T11:04:17;56237.59;;;-142.21;100.00
5053;BME280;2545;50.892;5.740;2023-05-10T11:06:43;56306.22;;;-142.21;100.00
5053;BME280;2545;50.892;5.740;2023-05-10T11:09:12;56278.78;;;-142.21;95.58
5053;BME280;2545;50.892;5.740;2023-05-10T11:11:53;56292.50;;;-142.21;97.25
5053;BME280;2545;50.892;5.740;2023-05-10T11:14:23;56290.53;;;-142.21;89.22
5053;BME280;2545;50.892;5.740;2023-05-10T11:16:48;56231.72;;;-142.21;87.57
5053;BME280;2545;50.892;5.740;2023-05-10T11:19:15;56263.06;;;-142.21;83.43
5053;BME280;2545;50.892;5.740;2023-05-10T11:21:49;56284.66;;;-142.21;82.03
5053;BME280;2545;50.892;5.740;2023-05-10T11:24:22;56243.47;;;-142.21;83.97
5053;BME280;2545;50.892;5.740;2023-05-10T11:26:53;56263.06;;;-142.21;82.96
5053;BME280;2545;50.892;5.740;2023-05-10T11:29:18;56251.31;;;-142.21;81.65
5053;BME280;2545;50.892;5.740;2023-05-10T11:31:44;56290.53;;;-142.21;79.26
5053;BME280;2545;50.892;5.740;2023-05-10T11:34:10;56265.03;;;-142.21;79.63
5053;BME280;2545;50.892;5.740;2023-05-10T11:36:36;56261.13;;;-142.21;80.82
5053;BME280;2545;50.892;5.740;2023-05-10T11:39:03;56263.06;;;-142.21;77.68
5053;BME280;2545;50.892;5.740;2023-05-10T11:41:30;56214.06;;;-142.21;81.78
5053;BME280;2545;50.892;5.740;2023-05-10T11:43:57;56237.59;;;-142.21;78.70
5053;BME280;2545;50.892;5.740;2023-05-10T11:46:25;56245.44;;;-142.21;77.90
5053;BME280;2545;50.892;5.740;2023-05-10T11:48:53;56227.78;;;-142.21;74.40
5053;BME280;2545;50.892;5.740;2023-05-10T11:51:22;56241.50;;;-142.21;71.00
5053;BME280;2545;50.892;5.740;2023-05-10T11:53:55;56231.72;;;-142.21;71.31
5053;BME280;2545;50.892;5.740;2023-05-10T11:56:21;56241.50;;;-142.21;71.89
5053;BME280;2545;50.892;5.740;2023-05-10T11:58:56;56272.88;;;-142.21;72.07
5053;BME280;2545;50.892;5.740;2023-05-10T12:01:22;56208.16;;;-142.21;69.00
5053;BME280;2545;50.892;5.740;2023-05-10T12:03:50;56231.72;;;-142.21;66.00
5053;BME280;2545;50.892;5.740;2023-05-10T12:06:15;56233.66;;;-142.21;62.52
5053;BME280;2545;50.892;5.740;2023-05-10T12:08:45;56245.44;;;-142.21;65.36
5053;BME280;2545;50.892;5.740;2023-05-10T12:11:12;56182.69;;;-142.21;64.49
5053;BME280;2545;50.892;5.740;2023-05-10T12:13:40;56233.66;;;-142.21;64.23
5053;BME280;2545;50.892;5.740;2023-05-10T12:16:19;56261.13;;;-142.21;67.92
5053;BME280;2545;50.892;5.740;2023-05-10T12:18:48;56243.47;;;-142.21;63.24
5053;BME280;2545;50.892;5.740;2023-05-10T12:21:14;56194.44;;;-142.21;60.57
5053;BME280;2545;50.892;5.740;2023-05-10T12:23:41;56249.34;;;-142.21;62.48
5053;BME280;2545;50.892;5.740;2023-05-10T12:26:09;56245.44;;;-142.21;63.05
5053;BME280;2545;50.892;5.740;2023-05-10T12:28:35;56219.94;;;-142.21;63.10
5053;BME280;2545;50.892;5.740;2023-05-10T12:31:01;56237.59;;;-142.21;67.90
5053;BME280;2545;50.892;5.740;2023-05-10T12:33:35;56229.75;;;-142.21;70.53
5053;BME280;2545;50.892;5.740;2023-05-10T12:36:02;56245.44;;;-142.21;69.33
5053;BME280;2545;50.892;5.740;2023-05-10T12:38:34;56216.00;;;-142.21;69.82
5053;BME280;2545;50.892;5.740;2023-05-10T12:41:08;56216.00;;;-142.21;69.13
5053;BME280;2545;50.892;5.740;2023-05-10T12:43:35;56219.94;;;-142.21;66.01
5053;BME280;2545;50.892;5.740;2023-05-10T12:46:08;56225.81;;;-142.21;66.08
5053;BME280;2545;50.892;5.740;2023-05-10T12:48:35;56196.41;;;-142.21;65.12
5053;BME280;2545;50.892;5.740;2023-05-10T12:51:02;56196.41;;;-142.21;65.56
5053;BME280;2545;50.892;5.740;2023-05-10T12:53:27;56235.63;;;-142.21;65.83
5053;BME280;2545;50.892;5.740;2023-05-10T12:55:52;56219.94;;;-142.21;69.22
5053;BME280;2545;50.892;5.740;2023-05-10T12:58:19;56212.09;;;-142.21;70.98
5053;BME280;2545;50.892;5.740;2023-05-10T13:00:45;56233.66;;;-142.21;68.15
5053;BME280;2545;50.892;5.740;2023-05-10T13:03:10;56249.34;;;-142.21;71.23
5053;BME280;2545;50.892;5.740;2023-05-10T13:05:35;56243.47;;;-142.21;68.07
5053;BME280;2545;50.892;5.740;2023-05-10T13:08:01;56223.84;;;-142.21;67.44
5053;BME280;2545;50.892;5.740;2023-05-10T13:10:27;56268.97;;;-142.21;67.32
5053;BME280;2545;50.892;5.740;2023-05-10T13:12:53;56249.34;;;-142.21;66.23